createdAt,value
2022-11-21T00:01:16.399Z,16.15
2022-11-21T00:03:43.051Z,18.02
2022-11-21T00:06:09.743Z,10.82
2022-11-21T00:08:36.445Z,17.45
2022-11-21T00:11:03.131Z,14.23
2022-11-21T00:13:29.794Z,12.45
2022-11-21T00:15:56.410Z,13.80
2022-11-21T00:18:23.086Z,10.60
2022-11-21T00:20:49.817Z,10.75
2022-11-21T00:23:16.464Z,13.93
2022-11-21T00:25:43.123Z,13.50
2022-11-21T00:28:09.810Z,11.48
2022-11-21T00:30:36.810Z,10.70
2022-11-21T00:33:03.525Z,8.15
2022-11-21T00:35:31.039Z,10.90
2022-11-21T00:37:57.726Z,11.45
2022-11-21T00:40:24.420Z,11.07
2022-11-21T00:42:51.031Z,9.68
2022-11-21T00:45:23.882Z,11.48
2022-11-21T00:47:50.884Z,9.98
2022-11-21T00:50:17.588Z,6.15
2022-11-21T00:52:44.239Z,6.25
2022-11-21T00:55:10.901Z,4.57
2022-11-21T00:57:37.556Z,9.98
2022-11-21T01:00:05.971Z,6.25
2022-11-21T01:02:32.794Z,7.65
2022-11-21T01:04:59.429Z,4.85
2022-11-21T01:07:26.404Z,4.03
2022-11-21T01:09:53.016Z,4.97
2022-11-21T01:12:19.681Z,3.55
2022-11-21T01:14:46.383Z,5.03
2022-11-21T01:17:13.033Z,3.75
2022-11-21T01:19:39.723Z,5.43
2022-11-21T01:22:06.358Z,6.50
2022-11-21T01:24:33.099Z,4.03
2022-11-21T01:26:59.741Z,6.00
2022-11-21T01:29:27.963Z,4.28
2022-11-21T01:31:54.747Z,7.47
2022-11-21T01:34:21.444Z,4.50
2022-11-21T01:36:48.081Z,4.80
2022-11-21T01:39:14.739Z,4.05
2022-11-21T01:41:44.007Z,5.03
2022-11-21T01:44:22.954Z,6.07
2022-11-21T01:46:50.933Z,4.53
2022-11-21T01:49:21.551Z,5.13
2022-11-21T01:51:56.627Z,4.18
2022-11-21T01:54:39.149Z,2.67
2022-11-21T01:57:12.399Z,5.35
2022-11-21T02:00:21.544Z,2.38
2022-11-21T02:02:53.129Z,3.35
2022-11-21T02:05:25.266Z,4.25
2022-11-21T02:07:56.921Z,4.43
2022-11-21T02:10:24.211Z,6.90
2022-11-21T02:12:53.238Z,6.78
2022-11-21T02:15:22.327Z,7.30
2022-11-21T02:17:49.043Z,5.80
2022-11-21T02:20:19.039Z,9.82
2022-11-21T02:22:54.278Z,7.13
2022-11-21T02:25:33.707Z,5.18
2022-11-21T02:28:07.121Z,7.20
2022-11-21T02:30:40.132Z,7.57
2022-11-21T02:33:07.128Z,5.30
2022-11-21T02:35:34.212Z,6.80
2022-11-21T02:38:11.868Z,10.18
2022-11-21T02:40:44.084Z,7.53
2022-11-21T02:43:17.588Z,6.82
2022-11-21T02:45:46.133Z,10.27
2022-11-21T02:48:14.007Z,8.68
2022-11-21T02:50:45.685Z,9.50
2022-11-21T02:53:18.120Z,7.30
2022-11-21T02:55:44.949Z,8.63
2022-11-21T02:58:11.879Z,12.48
2022-11-21T03:00:41.312Z,11.75
2022-11-21T03:03:08.231Z,9.35
2022-11-21T03:05:35.163Z,11.00
2022-11-21T03:08:03.829Z,12.85
2022-11-21T03:10:30.564Z,10.07
2022-11-21T03:13:01.180Z,11.80
2022-11-21T03:15:30.667Z,11.18
2022-11-21T03:17:57.873Z,12.13
2022-11-21T03:20:24.716Z,16.45
2022-11-21T03:22:53.395Z,13.80
2022-11-21T03:25:20.367Z,11.52
2022-11-21T03:27:49.920Z,14.52
2022-11-21T03:30:16.680Z,18.67
2022-11-21T03:32:43.490Z,16.00
2022-11-21T03:35:10.154Z,15.23
2022-11-21T03:37:36.783Z,13.30
2022-11-21T03:40:04.424Z,16.70
2022-11-21T03:42:31.270Z,18.67
2022-11-21T03:44:57.878Z,18.10
2022-11-21T03:47:25.713Z,19.60
2022-11-21T03:49:52.288Z,13.43
2022-11-21T03:52:18.991Z,18.67
2022-11-21T03:54:45.681Z,15.45
2022-11-21T03:57:12.354Z,18.58
2022-11-21T03:59:38.999Z,17.15
2022-11-21T04:02:05.616Z,14.52
2022-11-21T04:04:32.272Z,14.77
2022-11-21T04:06:59.053Z,12.80
2022-11-21T04:09:25.755Z,13.18
2022-11-21T04:11:52.401Z,13.05
2022-11-21T04:14:19.210Z,14.10
2022-11-21T04:16:45.852Z,12.13
2022-11-21T04:19:13.555Z,14.40
2022-11-21T04:21:40.209Z,15.23
2022-11-21T04:24:07.192Z,12.15
2022-11-21T04:26:33.857Z,11.38
2022-11-21T04:29:01.724Z,10.20
2022-11-21T04:31:28.320Z,14.02
2022-11-21T04:33:54.962Z,12.57
2022-11-21T04:36:21.586Z,13.48
2022-11-21T04:38:48.284Z,13.93
2022-11-21T04:41:14.982Z,15.20
2022-11-21T04:43:41.580Z,14.43
2022-11-21T04:46:08.261Z,18.08
2022-11-21T04:48:34.875Z,16.27
2022-11-21T04:51:03.306Z,20.30
2022-11-21T04:53:29.918Z,18.83
2022-11-21T04:55:56.862Z,19.30
2022-11-21T04:58:23.546Z,18.90
2022-11-21T05:00:50.295Z,18.23
2022-11-21T05:03:17.142Z,16.70
2022-11-21T05:05:43.866Z,23.10
2022-11-21T05:08:10.467Z,24.05
2022-11-21T05:10:57.159Z,22.88
2022-11-21T05:13:23.836Z,20.92
2022-11-21T05:15:57.167Z,15.50
2022-11-21T05:18:23.972Z,23.77
2022-11-21T05:20:50.599Z,23.70
2022-11-21T05:23:17.207Z,24.45
2022-11-21T05:25:43.834Z,22.40
2022-11-21T05:28:10.670Z,25.33
2022-11-21T05:30:37.693Z,18.98
2022-11-21T05:33:05.093Z,20.85
2022-11-21T05:35:31.756Z,21.90
2022-11-21T05:37:59.094Z,23.30
2022-11-21T05:40:26.274Z,23.83
2022-11-21T05:43:11.765Z,20.38
2022-11-21T05:45:39.220Z,27.88
2022-11-21T05:48:07.958Z,22.73
2022-11-21T05:50:36.194Z,23.60
2022-11-21T05:53:04.553Z,23.15
2022-11-21T05:55:33.820Z,22.33
2022-11-21T05:58:03.277Z,29.98
2022-11-21T06:00:30.027Z,28.40
2022-11-21T06:03:15.245Z,20.77
2022-11-21T06:05:41.984Z,25.80
2022-11-21T06:08:08.698Z,24.73
2022-11-21T06:10:35.451Z,26.17
2022-11-21T06:13:03.109Z,23.90
2022-11-21T06:15:30.436Z,27.05
2022-11-21T06:17:59.761Z,19.80
2022-11-21T06:20:26.379Z,26.58
2022-11-21T06:22:53.419Z,19.98
2022-11-21T06:25:20.063Z,20.67
2022-11-21T06:27:46.709Z,20.75
2022-11-21T06:30:15.486Z,24.85
2022-11-21T06:32:45.801Z,25.85
2022-11-21T06:35:12.683Z,24.60
2022-11-21T06:37:39.302Z,30.02
2022-11-21T06:40:06.505Z,30.27
2022-11-21T06:42:33.760Z,26.23
2022-11-21T06:45:00.386Z,25.42
2022-11-21T06:47:27.158Z,27.08
2022-11-21T06:49:53.842Z,27.38
2022-11-21T06:52:20.441Z,23.45
2022-11-21T06:54:47.116Z,23.70
2022-11-21T06:57:13.778Z,21.48
2022-11-21T06:59:40.478Z,23.33
2022-11-21T07:02:07.096Z,21.70
2022-11-21T07:04:33.754Z,27.48
2022-11-21T07:07:00.515Z,22.17
2022-11-21T07:09:34.442Z,20.30
2022-11-21T07:12:21.644Z,23.08
2022-11-21T07:14:48.322Z,21.30
2022-11-21T07:17:15.169Z,25.05
2022-11-21T07:19:41.851Z,33.13
2022-11-21T07:22:08.728Z,26.73
2022-11-21T07:24:35.420Z,26.75
2022-11-21T07:27:03.423Z,26.52
2022-11-21T07:29:30.399Z,25.92
2022-11-21T07:31:57.445Z,26.08
2022-11-21T07:34:24.201Z,22.98
2022-11-21T07:36:50.857Z,24.67
2022-11-21T07:39:17.573Z,28.65
2022-11-21T07:41:44.203Z,29.73
2022-11-21T07:44:10.890Z,31.83
2022-11-21T07:46:37.515Z,24.67
2022-11-21T07:49:04.182Z,29.17
2022-11-21T07:51:30.907Z,25.23
2022-11-21T07:53:57.737Z,26.05
2022-11-21T07:56:26.607Z,27.58
2022-11-21T07:58:53.575Z,24.30
2022-11-21T08:01:20.386Z,25.67
2022-11-21T08:03:47.189Z,20.98
2022-11-21T08:06:13.976Z,22.52
2022-11-21T08:08:40.653Z,23.98
2022-11-21T08:11:07.842Z,27.45
2022-11-21T08:13:35.234Z,22.90
2022-11-21T08:16:07.267Z,19.27
2022-11-21T08:21:02.461Z,16.38
2022-11-21T08:23:29.316Z,18.45
2022-11-21T08:25:55.983Z,20.50
2022-11-21T08:28:22.903Z,17.48
2022-11-21T08:30:49.798Z,18.52
2022-11-21T08:33:16.507Z,17.13
2022-11-21T08:35:43.267Z,17.20
2022-11-21T08:38:11.897Z,19.70
2022-11-21T08:40:40.002Z,26.73
2022-11-21T08:43:08.793Z,22.38
2022-11-21T08:45:37.181Z,20.55
2022-11-21T08:48:04.616Z,19.05
2022-11-21T08:50:32.175Z,22.98
2022-11-21T08:53:02.609Z,20.00
2022-11-21T08:55:30.352Z,20.30
2022-11-21T08:57:57.040Z,20.33
2022-11-21T09:00:23.945Z,22.10
2022-11-21T09:02:50.662Z,21.60
2022-11-21T09:05:17.367Z,22.02
2022-11-21T09:07:44.212Z,22.33
2022-11-21T09:10:11.094Z,22.50
2022-11-21T09:12:37.785Z,26.80
2022-11-21T09:15:23.777Z,23.23
2022-11-21T09:18:06.499Z,27.08
2022-11-21T09:20:37.965Z,22.88
2022-11-21T09:23:09.930Z,24.15
2022-11-21T09:25:36.804Z,26.15
2022-11-21T09:28:05.208Z,24.30
2022-11-21T09:30:32.213Z,26.77
2022-11-21T09:33:07.147Z,22.55
2022-11-21T09:35:33.989Z,21.85
2022-11-21T09:38:00.770Z,27.40
2022-11-21T09:40:30.136Z,24.48
2022-11-21T09:43:21.236Z,22.33
2022-11-21T09:45:56.180Z,23.00
2022-11-21T09:48:36.139Z,16.27
2022-11-21T09:51:09.894Z,18.15
2022-11-21T09:53:43.939Z,14.90
2022-11-21T09:56:15.664Z,15.88
2022-11-21T09:58:46.994Z,16.20
2022-11-21T10:01:16.156Z,13.63
2022-11-21T10:03:47.335Z,13.13
2022-11-21T10:06:21.374Z,16.50
2022-11-21T10:09:09.551Z,14.10
2022-11-21T10:11:59.133Z,13.27
2022-11-21T10:14:48.425Z,16.77
2022-11-21T10:17:40.479Z,14.25
2022-11-21T10:20:25.130Z,11.85
2022-11-21T10:23:00.869Z,12.57
2022-11-21T10:25:37.457Z,10.93
2022-11-21T10:28:11.735Z,11.00
2022-11-21T10:30:43.566Z,10.32
2022-11-21T10:33:18.172Z,7.90
2022-11-21T10:35:49.765Z,9.93
2022-11-21T10:38:25.243Z,7.45
2022-11-21T10:41:00.818Z,5.93
2022-11-21T10:44:08.759Z,5.55
2022-11-21T10:46:35.733Z,5.18
2022-11-21T10:49:04.582Z,6.68
2022-11-21T10:51:45.452Z,6.68
2022-11-21T10:54:32.355Z,7.82
2022-11-21T10:57:18.413Z,5.95
2022-11-21T11:00:17.710Z,7.30
2022-11-21T11:03:04.609Z,6.32
2022-11-21T11:05:37.123Z,9.23
2022-11-21T11:08:12.226Z,6.10
2022-11-21T11:10:41.242Z,7.10
2022-11-21T11:13:51.124Z,7.30
2022-11-21T11:16:21.390Z,5.22
2022-11-21T11:18:55.834Z,4.40
2022-11-21T11:21:25.579Z,8.02
2022-11-21T11:23:54.074Z,9.18
2022-11-21T11:26:25.772Z,9.40
2022-11-21T11:28:52.445Z,7.57
2022-11-21T11:31:19.471Z,6.50
2022-11-21T11:33:49.134Z,7.55
2022-11-21T11:36:26.918Z,9.00
2022-11-21T11:38:59.445Z,10.25
2022-11-21T11:42:17.046Z,6.65
2022-11-21T11:45:26.218Z,7.40
2022-11-21T11:47:56.411Z,11.75
2022-11-21T11:50:46.562Z,9.80
2022-11-21T11:53:26.178Z,7.53
2022-11-21T11:55:54.609Z,11.50
2022-11-21T11:58:33.463Z,9.77
2022-11-21T12:01:13.501Z,7.57
2022-11-21T12:03:40.167Z,7.47
2022-11-21T12:07:26.184Z,5.93
2022-11-21T12:09:40.259Z,8.25
2022-11-21T12:12:31.092Z,4.30
2022-11-21T12:15:34.550Z,5.68
2022-11-21T12:18:36.349Z,6.55
2022-11-21T12:21:03.089Z,6.70
2022-11-21T12:23:49.015Z,9.38
2022-11-21T12:26:35.663Z,7.38
2022-11-21T12:29:26.173Z,10.90
2022-11-21T12:32:05.775Z,10.07
2022-11-21T12:35:06.227Z,10.13
2022-11-21T12:38:04.900Z,10.07
2022-11-21T12:41:26.728Z,7.18
2022-11-21T12:44:09.000Z,4.28
2022-11-21T12:46:41.831Z,10.80
2022-11-21T12:49:59.943Z,10.13
2022-11-21T12:52:58.422Z,8.20
2022-11-21T12:55:39.023Z,11.05
2022-11-21T12:58:11.540Z,13.13
2022-11-21T13:00:39.159Z,10.95
2022-11-21T13:03:21.794Z,7.15
2022-11-21T13:05:52.853Z,7.25
2022-11-21T13:08:24.940Z,10.45
2022-11-21T13:11:32.208Z,5.03
2022-11-21T13:14:19.993Z,6.28
2022-11-21T13:17:22.090Z,4.30
2022-11-21T13:19:57.240Z,6.35
2022-11-21T13:22:36.143Z,5.05
2022-11-21T13:25:40.863Z,8.02
2022-11-21T13:28:13.551Z,8.00
2022-11-21T13:31:26.405Z,7.75
2022-11-21T13:33:53.625Z,5.80
2022-11-21T13:36:29.621Z,6.38
2022-11-21T13:38:59.910Z,6.78
2022-11-21T13:41:54.445Z,6.45
2022-11-21T13:44:33.609Z,5.65
2022-11-21T13:47:09.951Z,8.38
2022-11-21T13:49:44.755Z,4.95
2022-11-21T13:52:20.341Z,7.32
2022-11-21T13:54:59.387Z,6.72
2022-11-21T13:57:38.819Z,5.53
2022-11-21T14:00:31.572Z,6.22
2022-11-21T14:03:13.258Z,5.75
2022-11-21T14:06:15.294Z,7.07
2022-11-21T14:08:43.756Z,5.43
2022-11-21T14:11:22.282Z,2.72
2022-11-21T14:13:50.176Z,15.75
2022-11-21T14:16:45.175Z,8.60
2022-11-21T14:19:19.067Z,11.98
2022-11-21T14:21:47.187Z,9.15
2022-11-21T14:24:19.512Z,9.45
2022-11-21T14:26:49.590Z,6.70
2022-11-21T14:29:40.504Z,5.03
2022-11-21T14:32:15.064Z,7.30
2022-11-21T14:34:41.706Z,7.40
2022-11-21T14:37:08.462Z,7.75
2022-11-21T14:39:43.921Z,6.20
2022-11-21T14:42:14.993Z,4.00
2022-11-21T14:44:42.169Z,3.75
2022-11-21T14:47:23.122Z,4.05
2022-11-21T14:49:54.674Z,5.55
2022-11-21T14:52:31.575Z,7.05
2022-11-21T14:57:49.675Z,4.25
2022-11-21T15:00:51.523Z,5.78
2022-11-21T15:03:24.144Z,6.35
2022-11-21T15:06:05.728Z,4.32
2022-11-21T15:11:27.797Z,3.65
2022-11-21T15:16:49.786Z,4.73
2022-11-21T15:19:25.156Z,3.78
2022-11-21T15:21:54.102Z,2.80
2022-11-21T15:24:31.953Z,2.40
2022-11-21T15:26:59.482Z,3.72
2022-11-21T15:29:26.457Z,6.35
2022-11-21T15:32:07.313Z,3.28
2022-11-21T15:34:35.788Z,4.03
2022-11-21T15:37:16.268Z,3.78
2022-11-21T15:39:48.431Z,3.97
2022-11-21T15:42:29.092Z,3.88
2022-11-21T15:45:19.882Z,7.57
2022-11-21T15:47:48.343Z,7.10
2022-11-21T15:50:15.990Z,5.30
2022-11-21T15:52:50.980Z,3.13
2022-11-21T15:55:25.252Z,5.18
2022-11-21T15:57:13.406Z,4.38
2022-11-21T15:57:51.936Z,4.68
2022-11-21T16:00:18.776Z,5.93
2022-11-21T16:02:45.469Z,4.15
2022-11-21T16:05:15.891Z,4.05
2022-11-21T16:07:42.685Z,5.07
2022-11-21T16:10:18.384Z,4.47
2022-11-21T16:12:49.450Z,4.43
2022-11-21T16:15:16.500Z,3.03
2022-11-21T16:17:45.456Z,7.47
2022-11-21T16:20:12.402Z,4.97
2022-11-21T16:22:44.157Z,4.57
2022-11-21T16:25:13.748Z,4.45
2022-11-21T16:27:40.396Z,4.50
2022-11-21T16:30:13.640Z,4.18
2022-11-21T16:32:40.361Z,7.60
2022-11-21T16:35:07.305Z,5.93
2022-11-21T16:37:34.188Z,7.18
2022-11-21T16:40:00.932Z,6.93
2022-11-21T16:42:27.793Z,7.30
2022-11-21T16:44:54.416Z,6.00
2022-11-21T16:47:21.085Z,6.88
2022-11-21T16:49:49.140Z,5.47
2022-11-21T16:52:16.123Z,5.05
2022-11-21T16:54:42.733Z,5.60
2022-11-21T16:57:09.487Z,5.93
2022-11-21T16:59:36.178Z,4.28
2022-11-21T17:02:05.762Z,7.38
2022-11-21T17:04:32.816Z,8.63
2022-11-21T17:07:00.912Z,5.60
2022-11-21T17:09:27.848Z,8.30
2022-11-21T17:11:57.705Z,8.23
2022-11-21T17:14:24.373Z,5.95
2022-11-21T17:16:51.212Z,6.10
2022-11-21T17:19:17.926Z,6.45
2022-11-21T17:21:44.581Z,6.38
2022-11-21T17:24:13.533Z,9.07
2022-11-21T17:26:40.286Z,13.57
2022-11-21T17:29:07.162Z,10.18
2022-11-21T17:31:33.904Z,7.53
2022-11-21T17:34:01.251Z,9.75
2022-11-21T17:36:29.821Z,9.20
2022-11-21T17:38:56.710Z,7.63
2022-11-21T17:41:24.584Z,15.07
2022-11-21T17:43:57.912Z,10.20
2022-11-21T17:46:25.512Z,9.02
2022-11-21T17:48:57.225Z,5.65
2022-11-21T17:51:30.767Z,10.13
2022-11-21T17:53:57.956Z,6.60
2022-11-21T17:56:27.913Z,7.80
2022-11-21T17:58:54.760Z,9.05
2022-11-21T18:01:22.257Z,6.03
2022-11-21T18:03:55.375Z,7.35
2022-11-21T18:06:22.364Z,7.47
2022-11-21T18:08:49.397Z,6.35
2022-11-21T18:11:19.348Z,4.90
2022-11-21T18:13:49.781Z,7.72
2022-11-21T18:16:19.144Z,7.25
2022-11-21T18:18:45.966Z,5.00
2022-11-21T18:21:18.720Z,10.02
2022-11-21T18:23:46.963Z,7.15
2022-11-21T18:26:15.453Z,5.68
2022-11-21T18:28:42.597Z,8.27
2022-11-21T18:31:11.637Z,11.23
2022-11-21T18:33:39.183Z,8.23
2022-11-21T18:36:08.025Z,7.47
2022-11-21T18:38:49.322Z,7.03
2022-11-21T18:43:49.385Z,8.75
2022-11-21T18:46:16.583Z,9.68
2022-11-21T18:49:01.666Z,12.05
2022-11-21T18:51:31.424Z,13.88
2022-11-21T18:54:00.351Z,11.48
2022-11-21T18:56:27.327Z,11.32
2022-11-21T18:58:58.555Z,8.30
2022-11-21T19:01:29.734Z,9.25
2022-11-21T19:03:56.675Z,10.55
2022-11-21T19:06:25.373Z,10.35
2022-11-21T19:08:54.177Z,9.13
2022-11-21T19:11:24.294Z,15.43
2022-11-21T19:13:51.732Z,9.88
2022-11-21T19:16:20.738Z,10.90
2022-11-21T19:19:00.210Z,7.63
2022-11-21T19:21:39.123Z,15.60
2022-11-21T19:24:07.588Z,14.73
2022-11-21T19:26:34.342Z,10.30
2022-11-21T19:29:02.866Z,11.55
2022-11-21T19:31:29.473Z,9.60
2022-11-21T19:33:56.168Z,8.45
2022-11-21T19:36:24.127Z,12.27
2022-11-21T19:38:51.776Z,5.43
2022-11-21T19:41:26.573Z,10.68
2022-11-21T19:43:55.507Z,10.45
2022-11-21T19:46:24.754Z,10.13
2022-11-21T19:48:55.885Z,11.10
2022-11-21T19:51:27.566Z,8.40
2022-11-21T19:53:54.268Z,6.00
2022-11-21T19:56:23.952Z,10.00
2022-11-21T19:58:51.908Z,7.68
2022-11-21T20:01:24.050Z,14.57
2022-11-21T20:03:53.548Z,6.50
2022-11-21T20:06:21.754Z,9.20
2022-11-21T20:08:56.313Z,11.90
2022-11-21T20:11:24.678Z,7.60
2022-11-21T20:13:51.399Z,12.32
2022-11-21T20:16:30.483Z,13.75
2022-11-21T20:19:00.747Z,13.00
2022-11-21T20:21:27.912Z,12.82
2022-11-21T20:23:54.827Z,9.32
2022-11-21T20:26:22.555Z,9.73
2022-11-21T20:28:49.257Z,7.95
2022-11-21T20:31:18.530Z,8.57
2022-11-21T20:33:48.281Z,8.13
2022-11-21T20:36:18.721Z,8.55
2022-11-21T20:38:49.777Z,7.18
2022-11-21T20:41:16.479Z,10.88
2022-11-21T20:44:32.354Z,7.35
2022-11-21T20:46:29.798Z,14.48
2022-11-21T20:48:56.701Z,8.40
2022-11-21T20:54:10.787Z,8.45
2022-11-21T20:56:39.419Z,10.02
2022-11-21T20:59:09.246Z,10.40
2022-11-21T21:01:35.938Z,9.48
2022-11-21T21:04:05.297Z,8.00
2022-11-21T21:06:32.152Z,6.30
2022-11-21T21:08:58.846Z,8.57
2022-11-21T21:14:13.843Z,10.88
2022-11-21T21:16:40.692Z,10.27
2022-11-21T21:19:07.412Z,7.57
2022-11-21T21:21:34.024Z,9.07
2022-11-21T21:24:08.966Z,10.10
2022-11-21T21:26:42.929Z,9.18
2022-11-21T21:29:15.782Z,10.90
2022-11-21T21:31:49.946Z,8.77
2022-11-21T21:34:18.963Z,11.10
2022-11-21T21:36:45.682Z,8.93
2022-11-21T21:39:12.715Z,8.85
2022-11-21T21:41:46.050Z,8.23
2022-11-21T21:44:13.296Z,5.32
2022-11-21T21:46:40.062Z,7.32
2022-11-21T21:49:06.792Z,13.10
2022-11-21T21:51:33.511Z,18.25
2022-11-21T21:54:00.413Z,11.82
2022-11-21T21:56:28.848Z,6.00
2022-11-21T21:58:58.632Z,9.77
2022-11-21T22:01:32.675Z,9.55
2022-11-21T22:04:02.937Z,7.10
2022-11-21T22:06:32.126Z,8.77
2022-11-21T22:08:58.992Z,8.73
2022-11-21T22:11:28.223Z,11.52
2022-11-21T22:13:57.101Z,7.05
2022-11-21T22:16:24.233Z,9.77
2022-11-21T22:18:51.548Z,5.95
2022-11-21T22:21:20.719Z,9.85
2022-11-21T22:24:09.721Z,5.45
2022-11-21T22:26:34.477Z,4.93
2022-11-21T22:29:01.196Z,6.75
2022-11-21T22:31:30.491Z,10.10
2022-11-21T22:33:57.448Z,9.10
2022-11-21T22:36:24.174Z,5.28
2022-11-21T22:38:54.408Z,8.77
2022-11-21T22:41:26.713Z,7.38
2022-11-21T22:44:02.643Z,9.18
2022-11-21T22:46:30.369Z,7.85
2022-11-21T22:48:57.813Z,7.95
2022-11-21T22:51:29.083Z,6.75
2022-11-21T22:53:55.865Z,6.53
2022-11-21T22:56:24.152Z,8.25
2022-11-21T22:58:51.150Z,6.43
2022-11-21T23:01:22.851Z,7.70
2022-11-21T23:03:50.416Z,7.43
2022-11-21T23:06:19.575Z,9.50
2022-11-21T23:08:46.853Z,6.85
2022-11-21T23:11:16.529Z,6.38
2022-11-21T23:13:44.926Z,5.30
2022-11-21T23:16:12.270Z,8.65
2022-11-21T23:18:39.186Z,3.92
2022-11-21T23:21:06.432Z,4.43
2022-11-21T23:23:33.247Z,9.50
2022-11-21T23:26:00.165Z,6.28
2022-11-21T23:28:27.111Z,7.28
2022-11-21T23:30:53.888Z,6.30
2022-11-21T23:33:20.820Z,8.15
2022-11-21T23:35:47.742Z,8.05
2022-11-21T23:38:16.398Z,6.35
2022-11-21T23:40:46.036Z,5.10
2022-11-21T23:43:13.639Z,4.57
2022-11-21T23:45:40.709Z,7.45
2022-11-21T23:48:07.467Z,6.47
2022-11-21T23:50:34.270Z,6.22
2022-11-21T23:53:02.897Z,6.55
2022-11-21T23:55:29.638Z,8.48
2022-11-21T23:57:56.328Z,4.38
